sensor_id;sensor_type;location;lat;lon;timestamp;temperature;humidity
19220;DHT22;9744;49.364;7.484;2023-04-15T00:00:43;9.90;99.90
19220;DHT22;9744;49.364;7.484;2023-04-15T00:03:10;9.90;99.90
19220;DHT22;9744;49.364;7.484;2023-04-15T00:05:38;9.90;99.90
19220;DHT22;9744;49.364;7.484;2023-04-15T00:08:05;9.90;99.90
19220;DHT22;9744;49.364;7.484;2023-04-15T00:10:33;9.90;99.90
19220;DHT22;9744;49.364;7.484;2023-04-15T00:13:00;9.90;99.90
19220;DHT22;9744;49.364;7.484;2023-04-15T00:15:29;9.80;99.90
19220;DHT22;9744;49.364;7.484;2023-04-15T00:17:57;9.70;99.90
19220;DHT22;9744;49.364;7.484;2023-04-15T00:20:25;9.70;99.90
19220;DHT22;9744;49.364;7.484;2023-04-15T00:22:52;9.70;99.90
19220;DHT22;9744;49.364;7.484;2023-04-15T00:25:19;9.70;99.90
19220;DHT22;9744;49.364;7.484;2023-04-15T00:27:46;9.70;99.90
19220;DHT22;9744;49.364;7.484;2023-04-15T00:30:14;9.70;99.90
19220;DHT22;9744;49.364;7.484;2023-04-15T00:32:42;9.80;99.90
19220;DHT22;9744;49.364;7.484;2023-04-15T00:35:10;9.80;99.90
19220;DHT22;9744;49.364;7.484;2023-04-15T00:37:39;9.70;99.90
19220;DHT22;9744;49.364;7.484;2023-04-15T00:40:11;9.70;99.90
19220;DHT22;9744;49.364;7.484;2023-04-15T00:42:39;9.50;99.90
19220;DHT22;9744;49.364;7.484;2023-04-15T00:45:07;9.60;99.90
19220;DHT22;9744;49.364;7.484;2023-04-15T00:47:35;9.70;99.90
19220;DHT22;9744;49.364;7.484;2023-04-15T00:50:04;9.70;99.90
19220;DHT22;9744;49.364;7.484;2023-04-15T00:52:32;9.70;99.90
19220;DHT22;9744;49.364;7.484;2023-04-15T00:55:00;9.60;99.90
19220;DHT22;9744;49.364;7.484;2023-04-15T00:57:30;9.60;99.90
19220;DHT22;9744;49.364;7.484;2023-04-15T00:59:57;9.40;99.90
19220;DHT22;9744;49.364;7.484;2023-04-15T01:02:24;9.30;99.90
19220;DHT22;9744;49.364;7.484;2023-04-15T01:04:52;9.20;99.90
19220;DHT22;9744;49.364;7.484;2023-04-15T01:07:19;8.80;99.90
19220;DHT22;9744;49.364;7.484;2023-04-15T01:09:48;7.80;99.90
19220;DHT22;9744;49.364;7.484;2023-04-15T01:12:18;7.20;99.90
19220;DHT22;9744;49.364;7.484;2023-04-15T01:14:45;6.70;99.90
19220;DHT22;9744;49.364;7.484;2023-04-15T01:17:13;6.30;99.90
19220;DHT22;9744;49.364;7.484;2023-04-15T01:19:41;6.20;99.90
19220;DHT22;9744;49.364;7.484;2023-04-15T01:22:10;5.90;99.90
19220;DHT22;9744;49.364;7.484;2023-04-15T01:24:37;5.80;99.90
19220;DHT22;9744;49.364;7.484;2023-04-15T01:27:06;5.60;99.90
19220;DHT22;9744;49.364;7.484;2023-04-15T01:29:37;5.60;99.90
19220;DHT22;9744;49.364;7.484;2023-04-15T01:32:04;5.50;99.90
19220;DHT22;9744;49.364;7.484;2023-04-15T01:34:52;5.50;99.90
19220;DHT22;9744;49.364;7.484;2023-04-15T01:37:41;5.50;99.90
19220;DHT22;9744;49.364;7.484;2023-04-15T01:40:09;5.50;99.90
19220;DHT22;9744;49.364;7.484;2023-04-15T01:42:39;5.50;99.90
19220;DHT22;9744;49.364;7.484;2023-04-15T01:45:10;5.60;99.90
19220;DHT22;9744;49.364;7.484;2023-04-15T01:47:38;5.70;99.90
19220;DHT22;9744;49.364;7.484;2023-04-15T01:50:07;5.80;99.90
19220;DHT22;9744;49.364;7.484;2023-04-15T01:52:37;5.90;99.90
19220;DHT22;9744;49.364;7.484;2023-04-15T01:55:06;6.00;99.90
19220;DHT22;9744;49.364;7.484;2023-04-15T01:57:35;6.10;99.90
19220;DHT22;9744;49.364;7.484;2023-04-15T02:00:06;6.20;99.90
19220;DHT22;9744;49.364;7.484;2023-04-15T02:02:41;6.30;99.90
19220;DHT22;9744;49.364;7.484;2023-04-15T02:05:09;6.30;99.90
19220;DHT22;9744;49.364;7.484;2023-04-15T02:07:37;6.50;99.90
19220;DHT22;9744;49.364;7.484;2023-04-15T02:10:06;7.00;99.90
19220;DHT22;9744;49.364;7.484;2023-04-15T02:12:36;7.30;99.90
19220;DHT22;9744;49.364;7.484;2023-04-15T02:15:07;7.60;99.90
19220;DHT22;9744;49.364;7.484;2023-04-15T02:17:36;7.60;99.90
19220;DHT22;9744;49.364;7.484;2023-04-15T02:20:06;7.40;99.90
19220;DHT22;9744;49.364;7.484;2023-04-15T02:22:34;7.30;99.90
19220;DHT22;9744;49.364;7.484;2023-04-15T02:25:03;7.40;99.90
19220;DHT22;9744;49.364;7.484;2023-04-15T02:27:32;7.50;99.90
19220;DHT22;9744;49.364;7.484;2023-04-15T02:30:01;7.40;99.90
19220;DHT22;9744;49.364;7.484;2023-04-15T02:32:31;7.20;99.90
19220;DHT22;9744;49.364;7.484;2023-04-15T02:35:05;7.30;99.90
19220;DHT22;9744;49.364;7.484;2023-04-15T02:37:36;7.50;99.90
19220;DHT22;9744;49.364;7.484;2023-04-15T02:40:10;7.80;99.90
19220;DHT22;9744;49.364;7.484;2023-04-15T02:42:39;8.00;99.90
19220;DHT22;9744;49.364;7.484;2023-04-15T02:45:11;8.20;99.90
19220;DHT22;9744;49.364;7.484;2023-04-15T02:47:41;8.30;99.90
19220;DHT22;9744;49.364;7.484;2023-04-15T02:50:12;8.40;99.90
19220;DHT22;9744;49.364;7.484;2023-04-15T02:52:42;8.50;99.90
19220;DHT22;9744;49.364;7.484;2023-04-15T02:55:11;8.50;99.90
19220;DHT22;9744;49.364;7.484;2023-04-15T02:57:40;8.60;99.90
19220;DHT22;9744;49.364;7.484;2023-04-15T03:00:11;8.60;99.90
19220;DHT22;9744;49.364;7.484;2023-04-15T03:02:45;8.60;99.90
19220;DHT22;9744;49.364;7.484;2023-04-15T03:05:14;8.60;99.90
19220;DHT22;9744;49.364;7.484;2023-04-15T03:07:49;8.60;99.90
19220;DHT22;9744;49.364;7.484;2023-04-15T03:10:19;8.50;99.90
19220;DHT22;9744;49.364;7.484;2023-04-15T03:12:48;8.50;99.90
19220;DHT22;9744;49.364;7.484;2023-04-15T03:15:19;8.50;99.90
19220;DHT22;9744;49.364;7.484;2023-04-15T03:17:52;8.60;99.90
19220;DHT22;9744;49.364;7.484;2023-04-15T03:20:21;8.60;99.90
19220;DHT22;9744;49.364;7.484;2023-04-15T03:22:49;8.60;99.90
19220;DHT22;9744;49.364;7.484;2023-04-15T03:25:19;8.70;99.90
19220;DHT22;9744;49.364;7.484;2023-04-15T03:27:48;8.70;99.90
19220;DHT22;9744;49.364;7.484;2023-04-15T03:30:17;8.70;99.90
19220;DHT22;9744;49.364;7.484;2023-04-15T03:32:46;8.70;99.90
19220;DHT22;9744;49.364;7.484;2023-04-15T03:35:16;8.70;99.90
19220;DHT22;9744;49.364;7.484;2023-04-15T03:37:45;8.70;99.90
19220;DHT22;9744;49.364;7.484;2023-04-15T03:40:15;8.60;99.90
19220;DHT22;9744;49.364;7.484;2023-04-15T03:42:43;8.70;99.90
19220;DHT22;9744;49.364;7.484;2023-04-15T03:45:12;8.70;99.90
19220;DHT22;9744;49.364;7.484;2023-04-15T03:47:45;8.70;99.90
19220;DHT22;9744;49.364;7.484;2023-04-15T03:50:17;8.70;99.90
19220;DHT22;9744;49.364;7.484;2023-04-15T03:52:45;8.70;99.90
19220;DHT22;9744;49.364;7.484;2023-04-15T03:55:14;8.60;99.90
19220;DHT22;9744;49.364;7.484;2023-04-15T03:57:42;8.60;99.90
19220;DHT22;9744;49.364;7.484;2023-04-15T04:00:11;8.60;99.90
19220;DHT22;9744;49.364;7.484;2023-04-15T04:02:39;8.60;99.90
19220;DHT22;9744;49.364;7.484;2023-04-15T04:05:08;8.70;99.90
19220;DHT22;9744;49.364;7.484;2023-04-15T04:07:38;8.60;99.90
19220;DHT22;9744;49.364;7.484;2023-04-15T04:10:07;8.70;99.90
19220;DHT22;9744;49.364;7.484;2023-04-15T04:12:37;8.70;99.90
19220;DHT22;9744;49.364;7.484;2023-04-15T04:15:06;8.70;99.90
19220;DHT22;9744;49.364;7.484;2023-04-15T04:17:35;8.70;99.90
19220;DHT22;9744;49.364;7.484;2023-04-15T04:20:04;8.70;99.90
19220;DHT22;9744;49.364;7.484;2023-04-15T04:22:38;8.70;99.90
19220;DHT22;9744;49.364;7.484;2023-04-15T04:25:08;8.60;99.90
19220;DHT22;9744;49.364;7.484;2023-04-15T04:27:37;8.60;99.90
19220;DHT22;9744;49.364;7.484;2023-04-15T04:30:06;8.60;99.90
19220;DHT22;9744;49.364;7.484;2023-04-15T04:32:35;8.60;99.90
19220;DHT22;9744;49.364;7.484;2023-04-15T04:35:04;8.60;99.90
19220;DHT22;9744;49.364;7.484;2023-04-15T04:37:33;8.60;99.90
19220;DHT22;9744;49.364;7.484;2023-04-15T04:40:03;8.50;99.90
19220;DHT22;9744;49.364;7.484;2023-04-15T04:45:00;8.50;99.90
19220;DHT22;9744;49.364;7.484;2023-04-15T04:47:32;8.40;99.90
19220;DHT22;9744;49.364;7.484;2023-04-15T04:50:01;8.40;99.90
19220;DHT22;9744;49.364;7.484;2023-04-15T04:52:30;8.40;99.90
19220;DHT22;9744;49.364;7.484;2023-04-15T04:54:59;8.40;99.90
19220;DHT22;9744;49.364;7.484;2023-04-15T04:57:29;8.40;99.90
19220;DHT22;9744;49.364;7.484;2023-04-15T04:59:57;8.30;99.90
19220;DHT22;9744;49.364;7.484;2023-04-15T05:02:25;8.10;99.90
19220;DHT22;9744;49.364;7.484;2023-04-15T05:04:54;8.10;99.90
19220;DHT22;9744;49.364;7.484;2023-04-15T05:07:26;8.10;99.90
19220;DHT22;9744;49.364;7.484;2023-04-15T05:09:54;8.20;99.90
19220;DHT22;9744;49.364;7.484;2023-04-15T05:12:22;8.30;99.90
19220;DHT22;9744;49.364;7.484;2023-04-15T05:14:52;8.40;99.90
19220;DHT22;9744;49.364;7.484;2023-04-15T05:17:21;8.50;99.90
19220;DHT22;9744;49.364;7.484;2023-04-15T05:19:49;8.60;99.90
19220;DHT22;9744;49.364;7.484;2023-04-15T05:22:17;8.60;99.90
19220;DHT22;9744;49.364;7.484;2023-04-15T05:24:46;8.60;99.90
19220;DHT22;9744;49.364;7.484;2023-04-15T05:27:14;8.70;99.90
19220;DHT22;9744;49.364;7.484;2023-04-15T05:29:43;8.70;99.90
19220;DHT22;9744;49.364;7.484;2023-04-15T05:32:20;8.70;99.90
19220;DHT22;9744;49.364;7.484;2023-04-15T05:34:49;8.70;99.90
19220;DHT22;9744;49.364;7.484;2023-04-15T05:37:18;8.80;99.90
19220;DHT22;9744;49.364;7.484;2023-04-15T05:39:48;8.80;99.90
19220;DHT22;9744;49.364;7.484;2023-04-15T05:42:16;8.90;99.90
19220;DHT22;9744;49.364;7.484;2023-04-15T05:44:45;8.90;99.90
19220;DHT22;9744;49.364;7.484;2023-04-15T05:47:13;8.90;99.90
19220;DHT22;9744;49.364;7.484;2023-04-15T05:49:43;8.90;99.90
19220;DHT22;9744;49.364;7.484;2023-04-15T05:52:11;9.00;99.90
19220;DHT22;9744;49.364;7.484;2023-04-15T05:54:39;9.00;99.90
19220;DHT22;9744;49.364;7.484;2023-04-15T05:57:08;9.00;99.90
19220;DHT22;9744;49.364;7.484;2023-04-15T05:59:36;9.10;99.90
19220;DHT22;9744;49.364;7.484;2023-04-15T06:02:05;9.20;99.90
19220;DHT22;9744;49.364;7.484;2023-04-15T06:04:34;9.20;99.90
19220;DHT22;9744;49.364;7.484;2023-04-15T06:07:04;9.30;99.90
19220;DHT22;9744;49.364;7.484;2023-04-15T06:09:32;9.30;99.90
19220;DHT22;9744;49.364;7.484;2023-04-15T06:12:01;9.40;99.90
19220;DHT22;9744;49.364;7.484;2023-04-15T06:14:29;9.50;99.90
19220;DHT22;9744;49.364;7.484;2023-04-15T06:16:58;9.60;99.90
19220;DHT22;9744;49.364;7.484;2023-04-15T06:19:26;9.70;99.90
19220;DHT22;9744;49.364;7.484;2023-04-15T06:21:55;9.80;99.90
19220;DHT22;9744;49.364;7.484;2023-04-15T06:24:25;9.80;99.90
19220;DHT22;9744;49.364;7.484;2023-04-15T06:26:53;9.90;99.90
19220;DHT22;9744;49.364;7.484;2023-04-15T06:29:22;9.90;99.90
19220;DHT22;9744;49.364;7.484;2023-04-15T06:31:50;10.00;99.90
19220;DHT22;9744;49.364;7.484;2023-04-15T06:34:18;10.00;99.90
19220;DHT22;9744;49.364;7.484;2023-04-15T06:36:47;10.10;99.90
19220;DHT22;9744;49.364;7.484;2023-04-15T06:39:15;10.20;99.90
19220;DHT22;9744;49.364;7.484;2023-04-15T06:41:45;10.30;99.90
19220;DHT22;9744;49.364;7.484;2023-04-15T06:44:14;10.40;99.90
19220;DHT22;9744;49.364;7.484;2023-04-15T06:46:43;10.40;99.90
19220;DHT22;9744;49.364;7.484;2023-04-15T06:49:12;10.50;99.90
19220;DHT22;9744;49.364;7.484;2023-04-15T06:51:41;10.50;99.90
19220;DHT22;9744;49.364;7.484;2023-04-15T06:54:10;10.50;99.90
19220;DHT22;9744;49.364;7.484;2023-04-15T06:56:38;10.60;99.90
19220;DHT22;9744;49.364;7.484;2023-04-15T06:59:09;10.70;99.90
19220;DHT22;9744;49.364;7.484;2023-04-15T07:01:37;10.80;99.90
19220;DHT22;9744;49.364;7.484;2023-04-15T07:04:06;11.00;99.90
19220;DHT22;9744;49.364;7.484;2023-04-15T07:06:34;11.10;99.90
19220;DHT22;9744;49.364;7.484;2023-04-15T07:09:03;11.20;99.90
19220;DHT22;9744;49.364;7.484;2023-04-15T07:11:31;11.20;99.90
19220;DHT22;9744;49.364;7.484;2023-04-15T07:14:00;11.30;99.90
19220;DHT22;9744;49.364;7.484;2023-04-15T07:16:29;11.40;99.90
19220;DHT22;9744;49.364;7.484;2023-04-15T07:18:58;11.50;99.90
19220;DHT22;9744;49.364;7.484;2023-04-15T07:21:30;11.60;99.90
19220;DHT22;9744;49.364;7.484;2023-04-15T07:23:59;11.70;99.90
19220;DHT22;9744;49.364;7.484;2023-04-15T07:26:28;11.90;99.90
19220;DHT22;9744;49.364;7.484;2023-04-15T07:28:56;12.10;99.90
19220;DHT22;9744;49.364;7.484;2023-04-15T07:31:25;12.20;99.90
19220;DHT22;9744;49.364;7.484;2023-04-15T07:33:55;12.50;99.90
19220;DHT22;9744;49.364;7.484;2023-04-15T07:36:23;12.70;99.90
19220;DHT22;9744;49.364;7.484;2023-04-15T07:38:51;12.90;99.90
19220;DHT22;9744;49.364;7.484;2023-04-15T07:41:21;13.20;99.90
19220;DHT22;9744;49.364;7.484;2023-04-15T07:43:49;13.40;99.90
19220;DHT22;9744;49.364;7.484;2023-04-15T07:46:18;13.60;99.90
19220;DHT22;9744;49.364;7.484;2023-04-15T07:48:46;13.70;99.90
19220;DHT22;9744;49.364;7.484;2023-04-15T07:51:16;13.90;99.90
19220;DHT22;9744;49.364;7.484;2023-04-15T07:53:45;14.10;99.90
19220;DHT22;9744;49.364;7.484;2023-04-15T07:56:13;14.20;99.90
19220;DHT22;9744;49.364;7.484;2023-04-15T07:58:42;14.30;99.90
19220;DHT22;9744;49.364;7.484;2023-04-15T08:01:10;14.40;99.90
19220;DHT22;9744;49.364;7.484;2023-04-15T08:03:39;14.60;99.90
19220;DHT22;9744;49.364;7.484;2023-04-15T08:06:07;14.60;99.90
19220;DHT22;9744;49.364;7.484;2023-04-15T08:08:37;14.70;99.90
19220;DHT22;9744;49.364;7.484;2023-04-15T08:11:06;14.90;99.90
19220;DHT22;9744;49.364;7.484;2023-04-15T08:13:34;15.00;99.90
19220;DHT22;9744;49.364;7.484;2023-04-15T08:16:17;15.10;99.90
19220;DHT22;9744;49.364;7.484;2023-04-15T08:18:47;15.30;99.90
19220;DHT22;9744;49.364;7.484;2023-04-15T08:21:16;15.40;99.90
19220;DHT22;9744;49.364;7.484;2023-04-15T08:23:48;15.60;99.90
19220;DHT22;9744;49.364;7.484;2023-04-15T08:26:16;15.80;99.90
19220;DHT22;9744;49.364;7.484;2023-04-15T08:28:47;16.10;99.90
19220;DHT22;9744;49.364;7.484;2023-04-15T08:31:17;16.60;99.90
19220;DHT22;9744;49.364;7.484;2023-04-15T08:33:45;16.90;99.90
19220;DHT22;9744;49.364;7.484;2023-04-15T08:36:14;17.00;99.90
19220;DHT22;9744;49.364;7.484;2023-04-15T08:38:43;17.20;99.90
19220;DHT22;9744;49.364;7.484;2023-04-15T08:41:20;17.40;99.90
19220;DHT22;9744;49.364;7.484;2023-04-15T08:43:52;17.60;99.90
19220;DHT22;9744;49.364;7.484;2023-04-15T08:46:22;17.90;99.90
19220;DHT22;9744;49.364;7.484;2023-04-15T08:48:51;18.20;99.90
19220;DHT22;9744;49.364;7.484;2023-04-15T08:51:23;18.30;99.90
19220;DHT22;9744;49.364;7.484;2023-04-15T08:53:52;18.30;99.90
19220;DHT22;9744;49.364;7.484;2023-04-15T08:56:24;18.30;99.90
19220;DHT22;9744;49.364;7.484;2023-04-15T08:58:53;18.40;99.90
19220;DHT22;9744;49.364;7.484;2023-04-15T09:01:22;18.50;99.90
19220;DHT22;9744;49.364;7.484;2023-04-15T09:03:50;18.60;99.90
19220;DHT22;9744;49.364;7.484;2023-04-15T09:06:20;18.70;99.90
19220;DHT22;9744;49.364;7.484;2023-04-15T09:08:49;18.80;99.90
19220;DHT22;9744;49.364;7.484;2023-04-15T09:11:22;19.00;99.90
19220;DHT22;9744;49.364;7.484;2023-04-15T09:13:51;19.10;99.90
19220;DHT22;9744;49.364;7.484;2023-04-15T09:16:19;19.30;99.90
19220;DHT22;9744;49.364;7.484;2023-04-15T09:18:47;19.40;99.90
19220;DHT22;9744;49.364;7.484;2023-04-15T09:21:17;19.50;99.90
19220;DHT22;9744;49.364;7.484;2023-04-15T09:23:56;19.60;99.90
19220;DHT22;9744;49.364;7.484;2023-04-15T09:26:34;19.90;99.90
19220;DHT22;9744;49.364;7.484;2023-04-15T09:29:07;20.10;99.90
19220;DHT22;9744;49.364;7.484;2023-04-15T09:31:37;20.30;99.90
19220;DHT22;9744;49.364;7.484;2023-04-15T09:34:06;20.40;99.90
19220;DHT22;9744;49.364;7.484;2023-04-15T09:36:52;20.50;99.90
19220;DHT22;9744;49.364;7.484;2023-04-15T09:39:21;20.60;99.90
19220;DHT22;9744;49.364;7.484;2023-04-15T09:42:12;20.60;99.90
19220;DHT22;9744;49.364;7.484;2023-04-15T09:44:41;20.60;99.90
19220;DHT22;9744;49.364;7.484;2023-04-15T09:47:26;20.70;99.90
19220;DHT22;9744;49.364;7.484;2023-04-15T09:49:55;20.90;99.90
19220;DHT22;9744;49.364;7.484;2023-04-15T09:52:24;21.00;99.90
19220;DHT22;9744;49.364;7.484;2023-04-15T09:54:53;20.60;99.90
19220;DHT22;9744;49.364;7.484;2023-04-15T09:57:24;20.40;99.90
19220;DHT22;9744;49.364;7.484;2023-04-15T10:00:00;20.30;99.90
19220;DHT22;9744;49.364;7.484;2023-04-15T10:02:29;20.20;99.90
19220;DHT22;9744;49.364;7.484;2023-04-15T10:04:58;20.20;99.90
19220;DHT22;9744;49.364;7.484;2023-04-15T10:07:28;20.10;99.90
19220;DHT22;9744;49.364;7.484;2023-04-15T10:09:59;20.10;99.90
19220;DHT22;9744;49.364;7.484;2023-04-15T10:12:30;20.10;99.90
19220;DHT22;9744;49.364;7.484;2023-04-15T10:15:02;20.20;99.90
19220;DHT22;9744;49.364;7.484;2023-04-15T10:17:32;20.20;99.90
19220;DHT22;9744;49.364;7.484;2023-04-15T10:20:04;20.10;99.90
19220;DHT22;9744;49.364;7.484;2023-04-15T10:22:33;19.90;99.90
19220;DHT22;9744;49.364;7.484;2023-04-15T10:25:02;19.70;99.90
19220;DHT22;9744;49.364;7.484;2023-04-15T10:27:33;19.50;99.90
19220;DHT22;9744;49.364;7.484;2023-04-15T10:30:03;19.20;99.90
19220;DHT22;9744;49.364;7.484;2023-04-15T10:32:32;19.20;99.90
19220;DHT22;9744;49.364;7.484;2023-04-15T10:35:01;19.10;99.90
19220;DHT22;9744;49.364;7.484;2023-04-15T10:37:35;19.00;99.90
19220;DHT22;9744;49.364;7.484;2023-04-15T10:40:28;19.10;99.90
19220;DHT22;9744;49.364;7.484;2023-04-15T10:43:00;19.30;97.10
19220;DHT22;9744;49.364;7.484;2023-04-15T10:45:32;19.50;99.30
19220;DHT22;9744;49.364;7.484;2023-04-15T10:48:02;19.50;99.70
19220;DHT22;9744;49.364;7.484;2023-04-15T10:50:31;19.50;99.70
19220;DHT22;9744;49.364;7.484;2023-04-15T10:53:02;19.40;99.50
19220;DHT22;9744;49.364;7.484;2023-04-15T10:55:32;19.40;99.90
19220;DHT22;9744;49.364;7.484;2023-04-15T10:58:02;19.50;99.70
19220;DHT22;9744;49.364;7.484;2023-04-15T11:00:31;19.60;99.70
19220;DHT22;9744;49.364;7.484;2023-04-15T11:03:05;19.60;99.70
19220;DHT22;9744;49.364;7.484;2023-04-15T11:05:50;19.70;99.20
19220;DHT22;9744;49.364;7.484;2023-04-15T11:08:19;19.70;98.80
19220;DHT22;9744;49.364;7.484;2023-04-15T11:10:50;19.80;98.30
19220;DHT22;9744;49.364;7.484;2023-04-15T11:13:27;19.90;98.70
19220;DHT22;9744;49.364;7.484;2023-04-15T11:16:01;19.90;98.70
19220;DHT22;9744;49.364;7.484;2023-04-15T11:18:31;19.90;98.90
19220;DHT22;9744;49.364;7.484;2023-04-15T11:21:02;20.00;98.70
19220;DHT22;9744;49.364;7.484;2023-04-15T11:23:33;20.10;97.70
19220;DHT22;9744;49.364;7.484;2023-04-15T11:26:03;20.30;97.90
19220;DHT22;9744;49.364;7.484;2023-04-15T11:28:37;20.40;97.00
19220;DHT22;9744;49.364;7.484;2023-04-15T11:31:08;20.40;97.00
19220;DHT22;9744;49.364;7.484;2023-04-15T11:33:45;20.30;95.60
19220;DHT22;9744;49.364;7.484;2023-04-15T11:36:14;20.10;96.20
19220;DHT22;9744;49.364;7.484;2023-04-15T11:38:43;20.10;96.10
19220;DHT22;9744;49.364;7.484;2023-04-15T11:41:12;19.90;95.90
19220;DHT22;9744;49.364;7.484;2023-04-15T11:43:42;19.70;95.70
19220;DHT22;9744;49.364;7.484;2023-04-15T11:46:11;19.70;94.60
19220;DHT22;9744;49.364;7.484;2023-04-15T11:48:42;19.70;95.70
19220;DHT22;9744;49.364;7.484;2023-04-15T11:51:11;19.70;96.20
19220;DHT22;9744;49.364;7.484;2023-04-15T11:53:40;19.70;95.60
19220;DHT22;9744;49.364;7.484;2023-04-15T11:56:09;19.70;94.50
19220;DHT22;9744;49.364;7.484;2023-04-15T11:58:37;19.80;94.50
19220;DHT22;9744;49.364;7.484;2023-04-15T12:01:06;19.80;93.30
19220;DHT22;9744;49.364;7.484;2023-04-15T12:03:38;19.80;92.70
19220;DHT22;9744;49.364;7.484;2023-04-15T12:06:16;19.80;92.60
19220;DHT22;9744;49.364;7.484;2023-04-15T12:11:41;19.80;92.70
19220;DHT22;9744;49.364;7.484;2023-04-15T12:14:11;19.70;92.50
19220;DHT22;9744;49.364;7.484;2023-04-15T12:16:54;19.50;92.20
19220;DHT22;9744;49.364;7.484;2023-04-15T12:19:24;19.30;91.30
19220;DHT22;9744;49.364;7.484;2023-04-15T12:21:56;19.20;90.70
19220;DHT22;9744;49.364;7.484;2023-04-15T12:24:24;19.30;90.80
19220;DHT22;9744;49.364;7.484;2023-04-15T12:26:52;19.30;90.20
19220;DHT22;9744;49.364;7.484;2023-04-15T12:29:25;19.40;90.20
19220;DHT22;9744;49.364;7.484;2023-04-15T12:31:55;19.40;90.40
19220;DHT22;9744;49.364;7.484;2023-04-15T12:34:26;19.30;90.90
19220;DHT22;9744;49.364;7.484;2023-04-15T12:36:54;19.30;90.90
19220;DHT22;9744;49.364;7.484;2023-04-15T12:39:23;19.30;90.00
19220;DHT22;9744;49.364;7.484;2023-04-15T12:41:50;19.30;90.30
19220;DHT22;9744;49.364;7.484;2023-04-15T12:44:18;19.30;90.40
19220;DHT22;9744;49.364;7.484;2023-04-15T12:46:45;19.20;86.50
19220;DHT22;9744;49.364;7.484;2023-04-15T12:49:15;19.20;87.20
19220;DHT22;9744;49.364;7.484;2023-04-15T12:51:45;19.20;86.30
19220;DHT22;9744;49.364;7.484;2023-04-15T12:54:13;19.10;85.20
19220;DHT22;9744;49.364;7.484;2023-04-15T12:56:40;19.10;86.30
19220;DHT22;9744;49.364;7.484;2023-04-15T12:59:07;19.10;87.10
19220;DHT22;9744;49.364;7.484;2023-04-15T13:01:34;19.10;88.20
19220;DHT22;9744;49.364;7.484;2023-04-15T13:04:02;19.10;87.60
19220;DHT22;9744;49.364;7.484;2023-04-15T13:06:30;19.20;85.60
19220;DHT22;9744;49.364;7.484;2023-04-15T13:08:58;19.20;85.20
19220;DHT22;9744;49.364;7.484;2023-04-15T13:11:26;19.20;86.50
19220;DHT22;9744;49.364;7.484;2023-04-15T13:13:56;19.30;86.00
19220;DHT22;9744;49.364;7.484;2023-04-15T13:16:23;19.40;88.60
19220;DHT22;9744;49.364;7.484;2023-04-15T13:18:51;19.60;87.60
19220;DHT22;9744;49.364;7.484;2023-04-15T13:21:18;19.70;87.00
19220;DHT22;9744;49.364;7.484;2023-04-15T13:23:47;19.80;87.40
19220;DHT22;9744;49.364;7.484;2023-04-15T13:26:15;20.00;87.50
19220;DHT22;9744;49.364;7.484;2023-04-15T13:28:42;20.10;85.00
19220;DHT22;9744;49.364;7.484;2023-04-15T13:31:09;20.20;84.90
19220;DHT22;9744;49.364;7.484;2023-04-15T13:33:36;20.10;83.20
19220;DHT22;9744;49.364;7.484;2023-04-15T13:36:03;20.10;82.00
19220;DHT22;9744;49.364;7.484;2023-04-15T13:38:31;20.00;82.10
19220;DHT22;9744;49.364;7.484;2023-04-15T13:40:59;20.00;83.60
19220;DHT22;9744;49.364;7.484;2023-04-15T13:43:27;20.00;83.70
19220;DHT22;9744;49.364;7.484;2023-04-15T13:45:55;19.90;83.10
19220;DHT22;9744;49.364;7.484;2023-04-15T13:48:22;19.90;84.30
19220;DHT22;9744;49.364;7.484;2023-04-15T13:50:49;20.00;84.30
19220;DHT22;9744;49.364;7.484;2023-04-15T13:53:16;20.10;85.50
19220;DHT22;9744;49.364;7.484;2023-04-15T13:55:43;20.20;85.00
19220;DHT22;9744;49.364;7.484;2023-04-15T13:58:12;20.30;84.80
19220;DHT22;9744;49.364;7.484;2023-04-15T14:00:39;20.30;84.50
19220;DHT22;9744;49.364;7.484;2023-04-15T14:03:06;20.40;84.30
19220;DHT22;9744;49.364;7.484;2023-04-15T14:05:34;20.40;83.40
19220;DHT22;9744;49.364;7.484;2023-04-15T14:08:01;20.40;83.10
19220;DHT22;9744;49.364;7.484;2023-04-15T14:10:28;20.30;83.60
19220;DHT22;9744;49.364;7.484;2023-04-15T14:12:55;20.30;83.90
19220;DHT22;9744;49.364;7.484;2023-04-15T14:15:24;20.20;82.30
19220;DHT22;9744;49.364;7.484;2023-04-15T14:17:51;20.00;83.80
19220;DHT22;9744;49.364;7.484;2023-04-15T14:20:18;19.90;83.90
19220;DHT22;9744;49.364;7.484;2023-04-15T14:22:45;19.80;84.60
19220;DHT22;9744;49.364;7.484;2023-04-15T14:25:17;19.70;85.40
19220;DHT22;9744;49.364;7.484;2023-04-15T14:27:45;19.60;84.60
19220;DHT22;9744;49.364;7.484;2023-04-15T14:30:12;19.50;84.70
19220;DHT22;9744;49.364;7.484;2023-04-15T14:32:41;19.30;83.50
19220;DHT22;9744;49.364;7.484;2023-04-15T14:35:08;19.20;83.70
19220;DHT22;9744;49.364;7.484;2023-04-15T14:37:35;19.00;83.00
19220;DHT22;9744;49.364;7.484;2023-04-15T14:40:03;18.90;83.60
19220;DHT22;9744;49.364;7.484;2023-04-15T14:42:30;18.70;83.70
19220;DHT22;9744;49.364;7.484;2023-04-15T14:44:57;18.50;84.40
19220;DHT22;9744;49.364;7.484;2023-04-15T14:47:24;18.40;84.40
19220;DHT22;9744;49.364;7.484;2023-04-15T14:49:53;18.30;85.60
19220;DHT22;9744;49.364;7.484;2023-04-15T14:52:20;18.20;86.00
19220;DHT22;9744;49.364;7.484;2023-04-15T14:54:47;18.10;86.00
19220;DHT22;9744;49.364;7.484;2023-04-15T14:57:14;18.10;86.30
19220;DHT22;9744;49.364;7.484;2023-04-15T14:59:41;18.00;87.40
19220;DHT22;9744;49.364;7.484;2023-04-15T15:02:09;17.90;87.80
19220;DHT22;9744;49.364;7.484;2023-04-15T15:04:36;17.80;88.50
19220;DHT22;9744;49.364;7.484;2023-04-15T15:07:04;17.70;88.30
19220;DHT22;9744;49.364;7.484;2023-04-15T15:09:32;17.70;88.30
19220;DHT22;9744;49.364;7.484;2023-04-15T15:11:59;17.60;87.80
19220;DHT22;9744;49.364;7.484;2023-04-15T15:14:26;17.50;88.60
19220;DHT22;9744;49.364;7.484;2023-04-15T15:16:53;17.50;89.80
19220;DHT22;9744;49.364;7.484;2023-04-15T15:19:21;17.50;90.00
19220;DHT22;9744;49.364;7.484;2023-04-15T15:21:48;17.40;90.10
19220;DHT22;9744;49.364;7.484;2023-04-15T15:24:17;17.30;90.00
19220;DHT22;9744;49.364;7.484;2023-04-15T15:26:44;17.30;90.20
19220;DHT22;9744;49.364;7.484;2023-04-15T15:29:12;17.20;90.40
19220;DHT22;9744;49.364;7.484;2023-04-15T15:31:39;17.10;90.70
19220;DHT22;9744;49.364;7.484;2023-04-15T15:34:06;17.00;91.10
19220;DHT22;9744;49.364;7.484;2023-04-15T15:36:33;16.90;91.40
19220;DHT22;9744;49.364;7.484;2023-04-15T15:39:01;16.90;91.70
19220;DHT22;9744;49.364;7.484;2023-04-15T15:41:29;16.80;92.20
19220;DHT22;9744;49.364;7.484;2023-04-15T15:43:58;16.70;92.20
19220;DHT22;9744;49.364;7.484;2023-04-15T15:46:27;16.70;92.50
19220;DHT22;9744;49.364;7.484;2023-04-15T15:48:56;16.60;92.70
19220;DHT22;9744;49.364;7.484;2023-04-15T15:51:23;16.50;92.80
19220;DHT22;9744;49.364;7.484;2023-04-15T15:53:52;16.40;92.90
19220;DHT22;9744;49.364;7.484;2023-04-15T15:56:19;16.10;93.40
19220;DHT22;9744;49.364;7.484;2023-04-15T15:58:48;16.10;93.80
19220;DHT22;9744;49.364;7.484;2023-04-15T16:01:15;15.90;94.50
19220;DHT22;9744;49.364;7.484;2023-04-15T16:03:45;15.80;95.20
19220;DHT22;9744;49.364;7.484;2023-04-15T16:06:12;15.70;95.70
19220;DHT22;9744;49.364;7.484;2023-04-15T16:08:39;15.60;96.10
19220;DHT22;9744;49.364;7.484;2023-04-15T16:11:06;15.60;96.10